createdAt,value
2018-02-20T00:02:09.477Z,95.20
2018-02-20T00:04:38.326Z,83.80
2018-02-20T00:13:10.636Z,90.97
2018-02-20T00:15:40.259Z,88.47
2018-02-20T00:18:09.102Z,77.17
2018-02-20T00:20:38.838Z,82.40
2018-02-20T00:23:07.674Z,82.33
2018-02-20T00:25:36.515Z,83.83
2018-02-20T00:28:05.357Z,75.23
2018-02-20T00:30:34.197Z,90.33
2018-02-20T00:33:03.600Z,75.47
2018-02-20T00:35:32.429Z,81.63
2018-02-20T00:38:01.295Z,78.60
2018-02-20T00:40:30.149Z,75.07
2018-02-20T00:42:58.975Z,77.47
2018-02-20T00:45:27.852Z,75.07
2018-02-20T00:47:56.701Z,83.57
2018-02-20T00:50:26.311Z,72.50
2018-02-20T00:52:55.918Z,71.63
2018-02-20T00:55:25.515Z,70.83
2018-02-20T00:57:55.158Z,70.37
2018-02-20T01:00:24.007Z,66.43
2018-02-20T01:02:52.837Z,73.07
2018-02-20T01:05:21.676Z,71.07
2018-02-20T01:07:50.516Z,74.43
2018-02-20T01:10:19.365Z,85.87
2018-02-20T01:12:48.195Z,70.50
2018-02-20T01:15:17.594Z,67.63
2018-02-20T01:17:46.450Z,78.43
2018-02-20T01:20:16.059Z,68.43
2018-02-20T01:22:45.678Z,72.77
2018-02-20T01:25:15.282Z,69.37
2018-02-20T01:27:45.654Z,78.57
2018-02-20T01:30:15.468Z,72.93
2018-02-20T01:32:44.317Z,79.27
2018-02-20T01:35:13.178Z,79.13
2018-02-20T01:37:43.535Z,78.03
2018-02-20T01:40:13.142Z,73.93
2018-02-20T01:42:42.765Z,72.60
2018-02-20T01:45:11.612Z,75.10
2018-02-20T01:47:40.459Z,74.33
2018-02-20T01:50:09.330Z,66.63
2018-02-20T01:52:38.167Z,74.20
2018-02-20T01:55:07.009Z,67.27
2018-02-20T01:57:35.851Z,62.57
2018-02-20T02:00:04.762Z,65.17
2018-02-20T02:02:34.374Z,73.90
2018-02-20T02:05:04.003Z,69.27
2018-02-20T02:07:32.818Z,68.87
2018-02-20T02:10:01.659Z,74.00
2018-02-20T02:12:31.263Z,78.43
2018-02-20T02:15:00.871Z,69.80
2018-02-20T02:17:30.922Z,68.97
2018-02-20T02:19:59.772Z,69.50
2018-02-20T02:22:28.619Z,72.33
2018-02-20T02:24:57.446Z,75.87
2018-02-20T02:27:26.290Z,69.40
2018-02-20T02:29:55.128Z,66.10
2018-02-20T02:32:23.966Z,65.07
2018-02-20T02:34:52.831Z,66.50
2018-02-20T02:37:21.681Z,65.07
2018-02-20T02:39:51.274Z,69.27
2018-02-20T02:42:20.451Z,66.03
2018-02-20T02:44:49.287Z,67.33
2018-02-20T02:47:18.130Z,74.83
2018-02-20T02:49:46.974Z,64.30
2018-02-20T02:52:15.824Z,73.07
2018-02-20T02:54:45.428Z,69.87
2018-02-20T02:57:15.072Z,68.57
2018-02-20T02:59:44.687Z,61.50
2018-02-20T03:02:14.431Z,61.47
2018-02-20T03:04:43.264Z,65.30
2018-02-20T03:07:12.147Z,63.23
2018-02-20T03:09:40.962Z,63.00
2018-02-20T03:12:09.810Z,58.47
2018-02-20T03:14:38.630Z,62.97
2018-02-20T03:17:07.508Z,71.83
2018-02-20T03:19:36.403Z,65.47
2018-02-20T03:22:05.239Z,58.93
2018-02-20T03:24:34.846Z,61.63
2018-02-20T03:27:04.461Z,63.40
2018-02-20T03:29:33.550Z,57.13
2018-02-20T03:32:03.166Z,64.43
2018-02-20T03:34:32.763Z,64.87
2018-02-20T03:37:02.374Z,61.87
2018-02-20T03:39:31.977Z,62.83
2018-02-20T03:42:01.615Z,60.07
2018-02-20T03:44:30.502Z,61.33
2018-02-20T03:46:59.330Z,64.53
2018-02-20T03:49:28.191Z,66.13
2018-02-20T03:51:57.019Z,65.97
2018-02-20T03:54:25.853Z,58.73
2018-02-20T03:56:54.717Z,65.40
2018-02-20T03:59:24.364Z,58.13
2018-02-20T04:01:53.196Z,66.10
2018-02-20T04:04:22.803Z,65.10
2018-02-20T04:06:51.642Z,61.30
2018-02-20T04:09:20.516Z,66.90
2018-02-20T04:11:50.111Z,62.67
2018-02-20T04:14:19.723Z,64.63
2018-02-20T04:16:49.350Z,60.60
2018-02-20T04:19:18.527Z,60.07
2018-02-20T04:21:47.390Z,57.50
2018-02-20T04:24:16.991Z,60.53
2018-02-20T04:26:46.618Z,62.90
2018-02-20T04:29:15.460Z,56.90
2018-02-20T04:31:44.302Z,55.87
2018-02-20T04:34:13.141Z,57.93
2018-02-20T04:36:41.986Z,54.40
2018-02-20T04:39:10.823Z,56.53
2018-02-20T04:41:39.671Z,60.37
2018-02-20T04:44:08.506Z,60.93
2018-02-20T04:46:37.503Z,52.93
2018-02-20T04:49:07.099Z,64.37
2018-02-20T04:51:35.956Z,57.53
2018-02-20T04:54:04.782Z,61.33
2018-02-20T04:56:33.614Z,56.93
2018-02-20T04:59:02.454Z,65.17
2018-02-20T05:01:31.537Z,57.60
2018-02-20T05:04:00.340Z,62.90
2018-02-20T05:06:29.191Z,60.10
2018-02-20T05:08:58.039Z,61.33
2018-02-20T05:11:27.666Z,57.63
2018-02-20T05:13:56.515Z,62.57
2018-02-20T05:16:25.347Z,69.97
2018-02-20T05:18:54.201Z,67.53
2018-02-20T05:21:23.079Z,62.93
2018-02-20T05:23:51.978Z,69.93
2018-02-20T05:26:21.906Z,61.90
2018-02-20T05:28:50.766Z,59.30
2018-02-20T05:31:19.606Z,70.00
2018-02-20T05:33:48.454Z,60.60
2018-02-20T05:36:17.288Z,62.37
2018-02-20T05:38:46.129Z,64.40
2018-02-20T05:41:14.998Z,66.87
2018-02-20T05:43:44.625Z,65.83
2018-02-20T05:46:13.462Z,68.17
2018-02-20T05:48:42.307Z,60.63
2018-02-20T05:51:11.147Z,66.47
2018-02-20T05:53:39.978Z,61.53
2018-02-20T05:56:08.865Z,59.63
2018-02-20T05:58:37.708Z,68.33
2018-02-20T06:01:06.562Z,69.10
2018-02-20T06:03:35.392Z,70.50
2018-02-20T06:06:04.238Z,74.90
2018-02-20T06:08:33.100Z,73.67
2018-02-20T06:11:01.958Z,71.43
2018-02-20T06:13:30.793Z,70.83
2018-02-20T06:15:59.635Z,74.53
2018-02-20T06:18:28.475Z,68.70
2018-02-20T06:20:57.367Z,69.40
2018-02-20T06:23:26.226Z,79.53
2018-02-20T06:25:55.116Z,91.03
2018-02-20T06:28:23.950Z,93.53
2018-02-20T06:30:52.806Z,71.87
2018-02-20T06:33:21.646Z,66.00
2018-02-20T06:35:51.282Z,71.83
2018-02-20T06:38:20.144Z,64.20
2018-02-20T06:40:49.772Z,65.47
2018-02-20T06:43:19.386Z,68.43
2018-02-20T06:45:48.232Z,64.63
2018-02-20T06:48:17.081Z,73.97
2018-02-20T06:50:45.975Z,66.83
2018-02-20T06:53:15.563Z,68.93
2018-02-20T06:55:44.405Z,74.23
2018-02-20T06:58:13.257Z,78.57
2018-02-20T07:00:42.446Z,88.00
2018-02-20T07:03:11.302Z,79.03
2018-02-20T07:05:40.926Z,76.23
2018-02-20T07:08:09.779Z,81.37
2018-02-20T07:10:38.822Z,83.37
2018-02-20T07:13:07.658Z,81.30
2018-02-20T07:15:36.502Z,80.23
2018-02-20T07:18:05.343Z,79.27
2018-02-20T07:20:35.691Z,74.50
2018-02-20T07:23:04.536Z,77.13
2018-02-20T07:25:33.385Z,75.03
2018-02-20T07:28:03.002Z,70.03
2018-02-20T07:30:31.866Z,81.47
2018-02-20T07:33:00.721Z,76.30
2018-02-20T07:35:29.561Z,74.60
2018-02-20T07:37:59.170Z,71.93
2018-02-20T07:40:28.777Z,72.03
2018-02-20T07:42:58.396Z,63.80
2018-02-20T07:45:27.999Z,79.80
2018-02-20T07:47:58.556Z,66.50
2018-02-20T07:50:27.412Z,76.53
2018-02-20T07:52:57.017Z,77.67
2018-02-20T07:55:26.627Z,82.10
2018-02-20T07:57:56.237Z,79.20
2018-02-20T08:00:25.865Z,79.77
2018-02-20T08:02:54.703Z,74.70
2018-02-20T08:05:23.553Z,68.97
2018-02-20T08:07:52.384Z,71.27
2018-02-20T08:10:21.221Z,69.00
2018-02-20T08:12:50.074Z,63.33
2018-02-20T08:15:19.690Z,58.33
2018-02-20T08:17:49.314Z,64.30
2018-02-20T08:20:18.146Z,54.37
2018-02-20T08:22:47.007Z,66.13
2018-02-20T08:25:15.872Z,58.83
2018-02-20T08:27:45.498Z,63.73
2018-02-20T08:30:15.106Z,56.43
2018-02-20T08:32:43.949Z,48.53
2018-02-20T08:35:12.783Z,55.30
2018-02-20T08:37:41.622Z,61.07
2018-02-20T08:40:10.470Z,54.80
2018-02-20T08:42:39.313Z,53.10
2018-02-20T08:45:08.937Z,50.93
2018-02-20T08:47:38.553Z,48.90
2018-02-20T08:50:07.414Z,47.07
2018-02-20T08:52:36.255Z,46.97
2018-02-20T08:55:05.103Z,49.67
2018-02-20T08:57:34.720Z,48.70
2018-02-20T09:00:04.330Z,56.03
2018-02-20T09:02:33.191Z,47.43
2018-02-20T09:05:02.112Z,46.53
2018-02-20T09:07:31.151Z,50.53
2018-02-20T09:10:00.020Z,46.53
2018-02-20T09:12:28.845Z,45.30
2018-02-20T09:14:57.692Z,45.30
2018-02-20T09:17:28.090Z,47.23
2018-02-20T09:19:57.780Z,45.47
2018-02-20T09:22:26.619Z,43.90
2018-02-20T09:24:55.458Z,44.20
2018-02-20T09:27:25.059Z,41.90
2018-02-20T09:29:54.702Z,44.53
2018-02-20T09:32:23.549Z,49.27
2018-02-20T09:34:53.146Z,48.33
2018-02-20T09:37:22.002Z,44.77
2018-02-20T09:39:50.832Z,42.80
2018-02-20T09:42:20.450Z,39.97
2018-02-20T09:44:50.069Z,43.50
2018-02-20T09:47:18.946Z,44.53
2018-02-20T09:49:48.897Z,49.53
2018-02-20T09:52:17.723Z,42.00
2018-02-20T09:54:46.596Z,44.30
2018-02-20T09:57:15.444Z,45.20
2018-02-20T09:59:44.270Z,39.00
2018-02-20T10:02:13.150Z,42.03
2018-02-20T10:04:41.991Z,38.83
2018-02-20T10:07:11.630Z,37.60
2018-02-20T10:09:40.487Z,38.57
2018-02-20T10:12:10.127Z,35.80
2018-02-20T10:14:38.991Z,38.50
2018-02-20T10:17:08.636Z,37.13
2018-02-20T10:19:37.525Z,37.33
2018-02-20T10:22:06.374Z,36.60
2018-02-20T10:24:35.225Z,36.87
2018-02-20T10:27:04.886Z,35.87
2018-02-20T10:29:34.496Z,36.20
2018-02-20T10:32:04.103Z,36.43
2018-02-20T10:34:33.731Z,35.60
2018-02-20T10:37:02.579Z,38.10
2018-02-20T10:39:31.829Z,37.30
2018-02-20T10:42:00.704Z,35.97
2018-02-20T10:44:30.336Z,37.23
2018-02-20T10:46:59.190Z,36.10
2018-02-20T10:49:28.686Z,38.63
2018-02-20T10:51:58.293Z,36.10
2018-02-20T10:54:27.159Z,39.57
2018-02-20T10:56:56.002Z,38.60
2018-02-20T10:59:24.859Z,38.30
2018-02-20T11:01:54.534Z,41.37
2018-02-20T11:04:23.355Z,38.43
2018-02-20T11:06:52.977Z,39.87
2018-02-20T11:09:22.571Z,37.43
2018-02-20T11:11:51.649Z,38.10
2018-02-20T11:14:20.503Z,39.20
2018-02-20T11:16:51.895Z,35.80
2018-02-20T11:19:18.226Z,39.27
2018-02-20T11:21:48.456Z,38.17
2018-02-20T11:24:17.842Z,39.90
2018-02-20T11:26:46.711Z,37.40
2018-02-20T11:29:16.838Z,38.37
2018-02-20T11:31:46.470Z,39.07
2018-02-20T11:34:15.314Z,38.07
2018-02-20T11:36:44.942Z,38.60
2018-02-20T11:39:14.561Z,38.80
2018-02-20T11:41:43.412Z,39.23
2018-02-20T11:44:12.770Z,39.20
2018-02-20T11:46:41.623Z,40.87
2018-02-20T11:49:11.245Z,40.03
2018-02-20T11:51:40.124Z,39.27
2018-02-20T11:54:09.745Z,42.77
2018-02-20T11:56:39.371Z,40.10
2018-02-20T11:59:08.210Z,41.03
2018-02-20T12:01:37.067Z,43.40
2018-02-20T12:04:05.921Z,42.33
2018-02-20T12:06:34.767Z,43.50
2018-02-20T12:09:03.623Z,45.10
2018-02-20T12:11:32.480Z,45.20
2018-02-20T12:14:02.196Z,44.13
2018-02-20T12:16:30.962Z,40.20
2018-02-20T12:19:00.581Z,41.30
2018-02-20T12:21:30.192Z,45.17
2018-02-20T12:23:59.830Z,43.60
2018-02-20T12:26:29.444Z,40.87
2018-02-20T12:28:59.058Z,39.10
2018-02-20T12:31:28.698Z,36.57
2018-02-20T12:33:57.586Z,36.50
2018-02-20T12:36:26.446Z,38.07
2018-02-20T12:38:55.311Z,38.37
2018-02-20T12:41:25.049Z,43.20
2018-02-20T12:43:53.879Z,36.93
2018-02-20T12:46:22.737Z,40.00
2018-02-20T12:48:51.578Z,41.90
2018-02-20T12:51:20.434Z,39.97
2018-02-20T12:53:49.258Z,43.43
2018-02-20T12:56:18.110Z,45.17
2018-02-20T12:58:46.955Z,49.27
2018-02-20T13:01:16.568Z,45.87
2018-02-20T13:03:46.175Z,43.73
2018-02-20T13:06:15.812Z,42.77
2018-02-20T13:08:44.669Z,51.43
2018-02-20T13:11:14.268Z,45.17
2018-02-20T13:13:43.891Z,46.10
2018-02-20T13:16:13.523Z,43.20
2018-02-20T13:18:42.381Z,47.07
2018-02-20T13:21:11.989Z,41.43
2018-02-20T13:23:41.599Z,46.53
2018-02-20T13:26:11.219Z,43.57
2018-02-20T13:28:40.894Z,54.93
2018-02-20T13:31:09.742Z,44.70
2018-02-20T13:33:38.597Z,43.47
2018-02-20T13:36:07.466Z,42.73
2018-02-20T13:38:36.310Z,43.53
2018-02-20T13:41:05.943Z,48.73
2018-02-20T13:43:34.776Z,45.47
2018-02-20T13:46:04.844Z,40.70
2018-02-20T13:48:33.702Z,45.50
2018-02-20T13:51:03.302Z,39.90
2018-02-20T13:53:32.918Z,42.50
2018-02-20T13:56:02.552Z,39.90
2018-02-20T13:58:31.397Z,38.10
2018-02-20T14:01:01.007Z,46.03
2018-02-20T14:03:29.854Z,40.20
2018-02-20T14:05:58.714Z,39.60
2018-02-20T14:08:27.564Z,47.20
2018-02-20T14:10:56.403Z,48.73
2018-02-20T14:13:25.671Z,51.70
2018-02-20T14:15:55.276Z,50.00
2018-02-20T14:18:24.573Z,47.60
2018-02-20T14:20:54.411Z,47.17
2018-02-20T14:23:24.042Z,49.47
2018-02-20T14:25:52.889Z,45.73
2018-02-20T14:28:21.726Z,44.47
2018-02-20T14:30:50.566Z,41.77
2018-02-20T14:33:19.403Z,47.00
2018-02-20T14:35:49.750Z,50.27
2018-02-20T14:38:19.385Z,47.47
2018-02-20T14:40:48.634Z,54.80
2018-02-20T14:43:17.497Z,53.63
2018-02-20T14:45:46.362Z,46.40
2018-02-20T14:48:15.993Z,43.63
2018-02-20T14:50:44.850Z,39.70
2018-02-20T14:53:14.450Z,48.83
2018-02-20T14:55:44.082Z,48.17
2018-02-20T14:58:12.939Z,41.87
2018-02-20T15:00:42.686Z,39.87
2018-02-20T15:03:11.522Z,43.43
2018-02-20T15:05:40.367Z,47.53
2018-02-20T15:08:09.222Z,40.27
2018-02-20T15:10:38.910Z,40.97
2018-02-20T15:13:07.715Z,42.20
2018-02-20T15:15:37.359Z,37.07
2018-02-20T15:18:06.468Z,39.00
2018-02-20T15:20:35.303Z,40.67
2018-02-20T15:23:04.986Z,38.73
2018-02-20T15:25:33.814Z,38.10
2018-02-20T15:28:02.649Z,40.23
2018-02-20T15:30:31.504Z,38.60
2018-02-20T15:33:01.001Z,44.20
2018-02-20T15:35:30.623Z,41.13
2018-02-20T15:37:59.486Z,47.70
2018-02-20T15:40:28.347Z,45.97
2018-02-20T15:42:57.975Z,50.60
2018-02-20T15:45:26.816Z,53.50
2018-02-20T15:47:55.678Z,45.50
2018-02-20T15:50:24.518Z,51.80
2018-02-20T15:52:54.971Z,50.40
2018-02-20T15:55:23.828Z,50.53
2018-02-20T15:57:53.477Z,57.13
2018-02-20T16:00:23.076Z,49.07
2018-02-20T16:02:52.673Z,46.90
2018-02-20T16:05:21.515Z,43.83
2018-02-20T16:07:50.373Z,42.80
2018-02-20T16:10:19.211Z,42.37
2018-02-20T16:12:48.066Z,46.70
2018-02-20T16:15:16.913Z,41.97
2018-02-20T16:17:46.842Z,46.90
2018-02-20T16:20:15.731Z,49.03
2018-02-20T16:22:44.547Z,47.63
2018-02-20T16:25:13.475Z,42.90
2018-02-20T16:27:42.311Z,42.07
2018-02-20T16:30:11.945Z,51.90
2018-02-20T16:32:40.786Z,45.80
2018-02-20T16:35:10.049Z,52.90
2018-02-20T16:37:39.409Z,47.03
2018-02-20T16:40:09.023Z,47.50
2018-02-20T16:42:38.615Z,46.77
2018-02-20T16:45:08.264Z,48.37
2018-02-20T16:47:37.955Z,46.77
2018-02-20T16:50:06.825Z,44.80
2018-02-20T16:52:36.443Z,53.67
2018-02-20T16:55:06.066Z,47.20
2018-02-20T16:57:34.924Z,50.53
2018-02-20T17:00:04.098Z,46.30
2018-02-20T17:02:32.955Z,48.30
2018-02-20T17:05:01.795Z,45.80
2018-02-20T17:07:31.426Z,48.40
2018-02-20T17:10:00.313Z,45.27
2018-02-20T17:12:29.591Z,46.80
2018-02-20T17:14:58.424Z,46.20
2018-02-20T17:17:27.269Z,48.60
2018-02-20T17:19:56.883Z,47.90
2018-02-20T17:22:26.495Z,54.53
2018-02-20T17:24:56.117Z,47.80
2018-02-20T17:27:25.740Z,46.40
2018-02-20T17:29:55.339Z,50.27
2018-02-20T17:32:25.075Z,47.80
2018-02-20T17:34:53.921Z,60.07
2018-02-20T17:37:22.775Z,56.50
2018-02-20T17:39:51.631Z,53.33
2018-02-20T17:42:21.272Z,53.40
2018-02-20T17:44:50.148Z,51.10
2018-02-20T17:47:19.046Z,53.20
2018-02-20T17:49:48.221Z,59.90
2018-02-20T17:52:18.041Z,52.97
2018-02-20T17:54:46.894Z,57.17
2018-02-20T17:57:16.537Z,59.80
2018-02-20T17:59:45.404Z,63.17
2018-02-20T18:02:15.039Z,55.10
2018-02-20T18:04:44.115Z,59.10
2018-02-20T18:07:13.203Z,60.10
2018-02-20T18:09:42.836Z,58.90
2018-02-20T18:12:11.681Z,60.77
2018-02-20T18:14:40.526Z,62.50
2018-02-20T18:17:09.403Z,64.67
2018-02-20T18:19:38.989Z,56.73
2018-02-20T18:22:08.614Z,65.30
2018-02-20T18:24:37.484Z,70.50
2018-02-20T18:27:07.074Z,71.90
2018-02-20T18:29:36.980Z,73.23
2018-02-20T18:32:06.556Z,71.87
2018-02-20T18:34:35.438Z,62.23
2018-02-20T18:37:05.073Z,65.37
2018-02-20T18:39:34.705Z,60.53
2018-02-20T18:42:03.957Z,65.23
2018-02-20T18:44:32.807Z,64.53
2018-02-20T18:47:01.673Z,70.07
2018-02-20T18:49:30.523Z,68.37
2018-02-20T18:51:59.421Z,67.27
2018-02-20T18:54:29.031Z,62.53
2018-02-20T18:56:58.731Z,64.80
2018-02-20T18:59:27.549Z,73.10
2018-02-20T19:01:56.586Z,65.47
2018-02-20T19:04:25.460Z,67.20
2018-02-20T19:06:54.334Z,72.33
2018-02-20T19:09:23.966Z,77.00
2018-02-20T19:11:52.805Z,73.37
2018-02-20T19:14:22.407Z,83.77
2018-02-20T19:16:52.049Z,76.40
2018-02-20T19:19:20.898Z,82.37
2018-02-20T19:21:49.811Z,74.50
2018-02-20T19:24:18.614Z,84.10
2018-02-20T19:26:47.494Z,91.53
2018-02-20T19:29:16.371Z,166.57
2018-02-20T19:31:45.267Z,291.90
2018-02-20T19:34:14.129Z,131.40
2018-02-20T19:36:44.794Z,107.83
2018-02-20T19:39:13.744Z,78.30
2018-02-20T19:41:42.646Z,71.27
2018-02-20T19:44:12.829Z,71.70
2018-02-20T19:46:41.692Z,74.77
2018-02-20T19:49:10.542Z,77.33
2018-02-20T19:51:40.159Z,72.63
2018-02-20T19:54:09.038Z,73.43
2018-02-20T19:56:38.646Z,81.27
2018-02-20T19:59:07.634Z,71.00
2018-02-20T20:01:37.282Z,75.40
2018-02-20T20:04:06.159Z,79.03
2018-02-20T20:06:35.782Z,73.73
2018-02-20T20:09:04.614Z,73.10
2018-02-20T20:11:33.480Z,79.30
2018-02-20T20:14:02.348Z,78.10
2018-02-20T20:16:31.971Z,83.40
2018-02-20T20:19:00.840Z,81.27
2018-02-20T20:21:29.719Z,89.73
2018-02-20T20:23:59.345Z,81.83
2018-02-20T20:26:28.236Z,81.13
2018-02-20T20:28:57.092Z,88.07
2018-02-20T20:31:26.845Z,95.13
2018-02-20T20:33:56.452Z,89.13
2018-02-20T20:36:25.304Z,83.87
2018-02-20T20:38:54.927Z,80.33
2018-02-20T20:41:24.828Z,83.80
2018-02-20T20:43:54.440Z,84.00
2018-02-20T20:46:23.290Z,82.00
2018-02-20T20:48:52.156Z,96.03
2018-02-20T20:51:21.035Z,86.37
2018-02-20T20:53:49.877Z,87.23
2018-02-20T20:56:19.486Z,79.40
2018-02-20T20:58:49.127Z,80.77
2018-02-20T21:01:17.990Z,76.87
2018-02-20T21:03:47.619Z,76.97
2018-02-20T21:06:16.458Z,87.00
2018-02-20T21:08:45.331Z,79.73
2018-02-20T21:11:14.183Z,84.07
2018-02-20T21:13:43.182Z,85.80
2018-02-20T21:16:12.023Z,78.90
2018-02-20T21:18:40.864Z,77.13
2018-02-20T21:21:09.715Z,74.07
2018-02-20T21:23:39.372Z,79.13
2018-02-20T21:26:10.710Z,70.20
2018-02-20T21:28:39.548Z,74.60
2018-02-20T21:31:08.391Z,79.47
2018-02-20T21:33:37.243Z,86.37
2018-02-20T21:36:06.883Z,80.87
2018-02-20T21:38:35.726Z,81.03
2018-02-20T21:41:05.343Z,86.40
2018-02-20T21:43:34.985Z,79.57
2018-02-20T21:46:03.833Z,83.33
2018-02-20T21:48:33.487Z,82.93
2018-02-20T21:51:02.362Z,81.87
2018-02-20T21:53:31.217Z,74.20
2018-02-20T21:56:00.847Z,87.93
2018-02-20T21:58:30.470Z,79.80
2018-02-20T22:01:00.080Z,81.87
2018-02-20T22:03:28.938Z,80.40
2018-02-20T22:05:57.776Z,78.50
2018-02-20T22:08:26.615Z,85.83
2018-02-20T22:10:56.220Z,87.90
2018-02-20T22:13:25.873Z,90.43
2018-02-20T22:15:54.705Z,82.00
2018-02-20T22:18:23.552Z,89.67
2018-02-20T22:20:52.404Z,91.57
2018-02-20T22:23:22.002Z,84.47
2018-02-20T22:25:51.622Z,87.27
2018-02-20T22:28:20.482Z,86.93
2018-02-20T22:30:49.336Z,85.53
2018-02-20T22:33:18.993Z,83.77
2018-02-20T22:35:47.827Z,77.63
2018-02-20T22:38:16.742Z,85.00
2018-02-20T22:40:45.594Z,95.17
2018-02-20T22:43:14.438Z,96.93
2018-02-20T22:45:44.082Z,87.67
2018-02-20T22:48:13.083Z,91.00
2018-02-20T22:50:41.923Z,88.73
2018-02-20T22:53:11.544Z,92.73
2018-02-20T22:55:42.882Z,82.27
2018-02-20T22:58:12.500Z,89.67
2018-02-20T23:00:42.134Z,84.53
2018-02-20T23:03:11.514Z,84.37
2018-02-20T23:05:41.142Z,84.53
2018-02-20T23:08:10.297Z,87.47
2018-02-20T23:10:39.973Z,89.37
2018-02-20T23:13:08.834Z,82.20
2018-02-20T23:15:37.666Z,81.20
2018-02-20T23:18:06.495Z,82.77
2018-02-20T23:20:36.103Z,84.00
2018-02-20T23:23:04.946Z,70.67
2018-02-20T23:25:33.791Z,81.47
2018-02-20T23:28:02.638Z,84.93
2018-02-20T23:30:31.506Z,73.60
2018-02-20T23:33:01.121Z,78.90
2018-02-20T23:35:30.759Z,81.57
2018-02-20T23:37:59.631Z,78.27
2018-02-20T23:40:28.471Z,80.47
2018-02-20T23:42:57.314Z,82.30
2018-02-20T23:45:26.155Z,84.70
2018-02-20T23:47:55.001Z,81.37
2018-02-20T23:50:23.844Z,79.13
2018-02-20T23:52:53.536Z,83.57
2018-02-20T23:55:22.368Z,83.47
2018-02-20T23:57:51.984Z,80.07
